createdAt,value
2022-12-11T01:40:24.167Z,32.20
2022-12-11T01:43:11.436Z,31.63
2022-12-11T01:45:44.856Z,29.65
2022-12-11T01:48:42.317Z,35.03
2022-12-11T01:51:10.507Z,31.45
2022-12-11T01:53:40.985Z,29.90
2022-12-11T01:56:08.982Z,37.35
2022-12-11T01:58:42.862Z,31.35
2022-12-11T02:01:12.819Z,37.05
2022-12-11T02:03:40.581Z,34.97
2022-12-11T02:06:38.917Z,34.90
2022-12-11T02:09:09.799Z,36.70
2022-12-11T02:12:02.498Z,33.17
2022-12-11T02:14:42.629Z,31.17
2022-12-11T02:17:42.920Z,33.15
2022-12-11T02:20:24.419Z,31.60
2022-12-11T02:23:13.655Z,30.10
2022-12-11T02:25:44.288Z,27.27
2022-12-11T02:28:19.251Z,31.17
2022-12-11T02:30:50.685Z,29.80
2022-12-11T02:33:20.871Z,32.45
2022-12-11T02:35:49.220Z,34.25
2022-12-11T02:38:29.093Z,28.27
2022-12-11T02:40:56.905Z,34.92
2022-12-11T02:43:24.977Z,27.85
2022-12-11T02:45:52.817Z,32.95
2022-12-11T02:48:21.114Z,30.65
2022-12-11T02:50:50.380Z,34.00
2022-12-11T02:53:21.913Z,35.10
2022-12-11T02:55:51.395Z,29.08
2022-12-11T02:58:24.095Z,29.48
2022-12-11T03:00:52.549Z,38.00
2022-12-11T03:03:20.439Z,35.08
2022-12-11T03:05:48.391Z,32.97
2022-12-11T03:08:17.766Z,32.85
2022-12-11T03:10:46.145Z,35.88
2022-12-11T03:13:14.411Z,31.90
2022-12-11T03:16:01.524Z,35.85
2022-12-11T03:18:50.076Z,34.22
2022-12-11T03:21:35.774Z,34.45
2022-12-11T03:24:04.549Z,42.53
2022-12-11T03:26:40.746Z,31.60
2022-12-11T03:29:35.112Z,41.40
2022-12-11T03:32:20.095Z,47.65
2022-12-11T03:35:01.154Z,49.33
2022-12-11T03:37:31.757Z,52.20
2022-12-11T03:40:01.927Z,59.38
2022-12-11T03:42:33.735Z,50.65
2022-12-11T03:45:01.623Z,56.05
2022-12-11T03:47:35.973Z,51.78
2022-12-11T03:50:04.762Z,52.53
2022-12-11T03:52:33.405Z,52.97
2022-12-11T03:55:01.809Z,51.17
2022-12-11T03:57:31.714Z,62.35
2022-12-11T03:59:59.788Z,54.22
2022-12-11T04:02:27.573Z,56.88
2022-12-11T04:04:55.440Z,46.85
2022-12-11T04:07:23.396Z,49.15
2022-12-11T04:09:51.973Z,40.58
2022-12-11T04:12:19.948Z,42.72
2022-12-11T04:15:02.808Z,40.63
2022-12-11T04:17:50.808Z,38.17
2022-12-11T04:20:37.312Z,44.83
2022-12-11T04:23:30.935Z,43.88
2022-12-11T04:26:16.414Z,36.03
2022-12-11T04:28:44.861Z,40.78
2022-12-11T04:31:22.692Z,36.03
2022-12-11T04:33:50.694Z,36.20
2022-12-11T04:36:18.619Z,38.05
2022-12-11T04:38:46.450Z,39.88
2022-12-11T04:41:14.949Z,42.67
2022-12-11T04:43:45.412Z,48.00
2022-12-11T04:46:18.949Z,42.08
2022-12-11T04:48:49.278Z,43.03
2022-12-11T04:51:20.518Z,34.67
2022-12-11T04:53:48.351Z,39.63
2022-12-11T04:56:17.060Z,49.10
2022-12-11T04:58:45.221Z,42.33
2022-12-11T05:01:15.356Z,47.25
2022-12-11T05:03:43.417Z,42.97
2022-12-11T05:06:11.344Z,42.28
2022-12-11T05:08:40.431Z,45.03
2022-12-11T05:11:10.259Z,37.10
2022-12-11T05:13:39.495Z,42.47
2022-12-11T05:16:08.508Z,41.30
2022-12-11T05:18:42.275Z,39.17
2022-12-11T05:21:17.390Z,43.92
2022-12-11T05:23:45.189Z,38.17
2022-12-11T05:26:17.159Z,37.17
2022-12-11T05:28:45.404Z,40.42
2022-12-11T05:31:17.675Z,41.00
2022-12-11T05:33:49.006Z,39.33
2022-12-11T05:36:19.251Z,38.20
2022-12-11T05:38:48.056Z,40.42
2022-12-11T05:41:17.822Z,39.10
2022-12-11T05:43:45.985Z,46.53
2022-12-11T05:46:15.699Z,42.83
2022-12-11T05:48:46.198Z,40.83
2022-12-11T05:51:14.876Z,31.65
2022-12-11T05:53:43.342Z,47.13
2022-12-11T05:56:20.345Z,42.97
2022-12-11T05:58:49.610Z,44.17
2022-12-11T06:01:21.228Z,45.65
2022-12-11T06:03:51.513Z,38.03
2022-12-11T06:06:19.642Z,36.28
2022-12-11T06:08:50.621Z,42.03
2022-12-11T06:11:23.953Z,46.25
2022-12-11T06:13:58.542Z,35.47
2022-12-11T06:16:27.055Z,38.20
2022-12-11T06:18:58.234Z,39.13
2022-12-11T06:21:28.436Z,39.85
2022-12-11T06:23:57.452Z,36.33
2022-12-11T06:26:28.182Z,41.00
2022-12-11T06:28:56.498Z,38.30
2022-12-11T06:31:26.754Z,41.28
2022-12-11T06:33:55.654Z,40.72
2022-12-11T06:36:24.575Z,41.05
2022-12-11T06:38:56.821Z,39.92
2022-12-11T06:41:25.126Z,39.03
2022-12-11T06:43:53.128Z,40.67
2022-12-11T06:46:23.618Z,39.20
2022-12-11T06:48:52.306Z,38.78
2022-12-11T06:51:22.236Z,38.90
2022-12-11T06:53:59.414Z,41.97
2022-12-11T06:56:27.266Z,39.53
2022-12-11T06:59:00.644Z,39.05
2022-12-11T07:01:32.522Z,46.17
2022-12-11T07:04:00.912Z,41.47
2022-12-11T07:06:29.086Z,43.15
2022-12-11T07:08:57.324Z,47.67
2022-12-11T07:11:25.149Z,45.33
2022-12-11T07:13:53.742Z,44.42
2022-12-11T07:16:22.272Z,40.58
2022-12-11T07:18:51.485Z,38.75
2022-12-11T07:21:20.585Z,37.13
2022-12-11T07:23:49.597Z,35.65
2022-12-11T07:26:19.130Z,42.45
2022-12-11T07:28:48.078Z,34.53
2022-12-11T07:31:24.187Z,38.63
2022-12-11T07:33:55.844Z,35.53
2022-12-11T07:36:25.025Z,35.40
2022-12-11T07:38:53.362Z,35.38
2022-12-11T07:41:25.361Z,31.65
2022-12-11T07:43:59.684Z,43.42
2022-12-11T07:46:30.752Z,35.47
2022-12-11T07:49:03.425Z,34.58
2022-12-11T07:51:55.262Z,29.08
2022-12-11T07:54:26.227Z,37.10
2022-12-11T07:56:55.396Z,33.80
2022-12-11T07:59:28.247Z,35.88
2022-12-11T08:01:59.379Z,36.60
2022-12-11T08:04:29.775Z,32.60
2022-12-11T08:06:59.572Z,31.92
2022-12-11T08:09:31.571Z,29.75
2022-12-11T08:12:00.772Z,31.83
2022-12-11T08:14:32.169Z,32.92
2022-12-11T08:17:02.764Z,33.72
2022-12-11T08:19:31.350Z,32.78
2022-12-11T08:21:59.151Z,32.25
2022-12-11T08:24:27.826Z,30.88
2022-12-11T08:26:55.875Z,31.80
2022-12-11T08:29:24.013Z,26.48
2022-12-11T08:31:55.223Z,33.53
2022-12-11T08:34:23.000Z,29.45
2022-12-11T08:36:55.765Z,31.42
2022-12-11T08:39:23.774Z,30.85
2022-12-11T08:41:52.449Z,34.33
2022-12-11T08:44:20.189Z,28.48
2022-12-11T08:46:48.589Z,29.08
2022-12-11T08:49:18.440Z,28.67
2022-12-11T08:51:47.308Z,27.38
2022-12-11T08:54:15.181Z,26.90
2022-12-11T08:56:43.087Z,28.25
2022-12-11T08:59:14.401Z,23.95
2022-12-11T09:01:43.376Z,29.25
2022-12-11T09:04:14.407Z,27.35
2022-12-11T09:06:42.500Z,26.38
2022-12-11T09:09:20.601Z,25.58
2022-12-11T09:11:50.582Z,25.17
2022-12-11T09:14:18.508Z,31.05
2022-12-11T09:16:55.470Z,28.58
2022-12-11T09:19:27.843Z,27.40
2022-12-11T09:22:04.914Z,29.50
2022-12-11T09:24:37.990Z,30.13
2022-12-11T09:27:09.723Z,26.20
2022-12-11T09:29:38.902Z,22.80
2022-12-11T09:32:48.138Z,28.90
2022-12-11T09:35:17.855Z,26.63
2022-12-11T09:37:52.090Z,28.13
2022-12-11T09:40:20.429Z,31.33
2022-12-11T09:42:54.861Z,29.23
2022-12-11T09:45:23.469Z,26.23
2022-12-11T09:47:52.942Z,27.20
2022-12-11T09:50:25.301Z,26.63
2022-12-11T09:53:08.989Z,29.40
2022-12-11T09:55:51.462Z,28.75
2022-12-11T09:59:01.701Z,27.00
2022-12-11T10:01:50.858Z,33.03
2022-12-11T10:04:52.562Z,29.63
2022-12-11T10:07:32.547Z,29.45
2022-12-11T10:10:13.699Z,26.20
2022-12-11T10:12:53.973Z,21.45
2022-12-11T10:15:43.226Z,27.95
2022-12-11T10:18:18.891Z,26.75
2022-12-11T10:23:27.477Z,28.77
2022-12-11T10:26:11.396Z,28.55
2022-12-11T10:28:40.660Z,31.30
2022-12-11T10:31:39.107Z,29.88
2022-12-11T10:34:15.491Z,35.50
2022-12-11T10:36:43.412Z,29.90
2022-12-11T10:39:17.016Z,36.65
2022-12-11T10:41:52.508Z,29.35
2022-12-11T10:44:30.924Z,33.08
2022-12-11T10:47:14.000Z,28.75
2022-12-11T10:50:04.564Z,29.13
2022-12-11T10:52:45.088Z,34.22
2022-12-11T10:55:21.785Z,24.75
2022-12-11T10:58:01.874Z,28.95
2022-12-11T11:00:33.230Z,25.55
2022-12-11T11:03:28.502Z,26.20
2022-12-11T11:06:15.078Z,30.13
2022-12-11T11:09:04.964Z,28.55
2022-12-11T11:11:38.334Z,21.73
2022-12-11T11:14:19.191Z,28.67
2022-12-11T11:17:14.254Z,28.48
2022-12-11T11:19:43.482Z,27.40
2022-12-11T11:22:17.857Z,25.85
2022-12-11T11:24:59.572Z,25.50
2022-12-11T11:27:30.528Z,26.00
2022-12-11T11:30:00.944Z,25.55
2022-12-11T11:32:40.641Z,28.58
2022-12-11T11:35:13.908Z,26.67
2022-12-11T11:37:58.797Z,27.95
2022-12-11T11:40:48.005Z,22.15
2022-12-11T11:43:59.553Z,30.05
2022-12-11T11:47:02.122Z,25.98
2022-12-11T11:49:56.185Z,18.63
2022-12-11T11:52:29.709Z,28.00
2022-12-11T11:55:02.391Z,21.05
2022-12-11T11:58:25.523Z,27.65
2022-12-11T12:02:09.174Z,21.77
2022-12-11T12:05:13.963Z,19.27
2022-12-11T12:08:02.776Z,22.75
2022-12-11T12:13:49.593Z,21.92
2022-12-11T12:16:55.637Z,26.42
2022-12-11T12:19:48.459Z,25.88
2022-12-11T12:22:24.949Z,25.48
2022-12-11T12:25:02.927Z,24.88
2022-12-11T12:28:05.400Z,25.13
2022-12-11T12:31:04.720Z,24.52
2022-12-11T12:33:41.948Z,21.65
2022-12-11T12:36:32.932Z,30.02
2022-12-11T12:39:14.248Z,23.90
2022-12-11T12:41:44.942Z,22.08
2022-12-11T12:44:14.175Z,22.45
2022-12-11T12:47:17.865Z,25.60
2022-12-11T12:49:48.123Z,20.25
2022-12-11T12:52:26.012Z,23.90
2022-12-11T12:55:16.163Z,23.73
2022-12-11T12:58:01.229Z,29.67
2022-12-11T13:00:44.203Z,36.63
2022-12-11T13:03:37.013Z,27.60
2022-12-11T13:06:30.756Z,21.95
2022-12-11T13:09:13.159Z,27.33
2022-12-11T13:11:43.376Z,25.65
2022-12-11T13:14:20.931Z,25.60
2022-12-11T13:19:49.411Z,27.73
2022-12-11T13:22:25.055Z,24.67
2022-12-11T13:24:56.506Z,26.58
2022-12-11T13:27:40.912Z,31.95
2022-12-11T13:30:15.700Z,23.02
2022-12-11T13:33:05.107Z,27.67
2022-12-11T13:36:21.341Z,24.67
2022-12-11T13:39:11.086Z,22.27
2022-12-11T13:41:38.901Z,27.15
2022-12-11T13:44:09.619Z,28.58
2022-12-11T13:46:37.818Z,24.08
2022-12-11T13:49:07.979Z,25.67
2022-12-11T13:51:38.928Z,21.48
2022-12-11T13:54:17.403Z,20.45
2022-12-11T13:57:03.935Z,20.08
2022-12-11T14:00:01.754Z,21.70
2022-12-11T14:02:55.065Z,30.10
2022-12-11T14:05:22.931Z,19.17
2022-12-11T14:07:56.521Z,18.83
2022-12-11T14:10:52.977Z,21.55
2022-12-11T14:13:28.254Z,24.65
2022-12-11T14:16:36.935Z,20.33
2022-12-11T14:19:09.507Z,23.40
2022-12-11T14:21:44.264Z,21.17
2022-12-11T14:24:14.765Z,23.02
2022-12-11T14:26:49.533Z,25.52
2022-12-11T14:29:29.789Z,25.48
2022-12-11T14:32:04.640Z,23.20
2022-12-11T14:34:37.046Z,22.73
2022-12-11T14:37:06.501Z,24.35
2022-12-11T14:39:59.960Z,24.85
2022-12-11T14:42:33.182Z,23.02
2022-12-11T14:45:21.113Z,24.33
2022-12-11T14:47:52.301Z,30.95
2022-12-11T14:50:37.170Z,25.17
2022-12-11T14:53:13.614Z,27.42
2022-12-11T14:55:41.617Z,34.50
2022-12-11T14:58:16.719Z,22.35
2022-12-11T15:01:06.549Z,26.50
2022-12-11T15:03:36.354Z,26.98
2022-12-11T15:06:31.170Z,18.80
2022-12-11T15:09:20.086Z,19.92
2022-12-11T15:11:52.482Z,21.30
2022-12-11T15:14:21.236Z,26.42
2022-12-11T15:16:52.503Z,22.38
2022-12-11T15:19:24.366Z,25.58
2022-12-11T15:21:52.785Z,21.10
2022-12-11T15:24:43.395Z,25.38
2022-12-11T15:27:53.741Z,25.08
2022-12-11T15:30:33.365Z,20.30
2022-12-11T15:33:42.447Z,21.75
2022-12-11T15:36:36.978Z,24.88
2022-12-11T15:39:09.545Z,20.10
2022-12-11T15:41:41.448Z,24.13
2022-12-11T15:44:14.135Z,23.05
2022-12-11T15:46:43.828Z,25.65
2022-12-11T15:49:15.388Z,26.85
2022-12-11T15:51:44.891Z,23.50
2022-12-11T15:54:13.267Z,27.25
2022-12-11T15:56:42.905Z,18.35
2022-12-11T15:59:10.700Z,26.67
2022-12-11T16:01:41.256Z,22.13
2022-12-11T16:04:09.857Z,26.55
2022-12-11T16:06:45.465Z,24.75
2022-12-11T16:09:16.623Z,25.07
2022-12-11T16:11:45.870Z,26.52
2022-12-11T16:14:15.147Z,28.65
2022-12-11T16:16:43.627Z,30.60
2022-12-11T16:19:12.029Z,25.58
2022-12-11T16:21:40.381Z,35.33
2022-12-11T16:24:08.710Z,35.03
2022-12-11T16:26:37.799Z,30.63
2022-12-11T16:29:07.293Z,29.77
2022-12-11T16:31:35.401Z,30.90
2022-12-11T16:34:03.346Z,36.75
2022-12-11T16:36:31.235Z,45.05
2022-12-11T16:38:59.334Z,25.98
2022-12-11T16:41:29.457Z,33.30
2022-12-11T16:43:57.839Z,40.47
2022-12-11T16:46:25.719Z,34.83
2022-12-11T16:48:58.546Z,35.92
2022-12-11T16:51:29.736Z,34.75
2022-12-11T16:53:58.347Z,41.10
2022-12-11T16:56:27.493Z,42.63
2022-12-11T16:58:55.397Z,32.22
2022-12-11T17:01:26.683Z,31.45
2022-12-11T17:03:54.626Z,29.48
2022-12-11T17:06:23.580Z,37.92
2022-12-11T17:08:51.614Z,44.45
2022-12-11T17:11:22.912Z,37.25
2022-12-11T17:14:01.100Z,38.78
2022-12-11T17:16:31.694Z,37.25
2022-12-11T17:19:03.579Z,28.65
2022-12-11T17:21:32.315Z,29.27
2022-12-11T17:24:00.502Z,38.50
2022-12-11T17:26:29.283Z,32.35
2022-12-11T17:28:59.761Z,31.33
2022-12-11T17:31:28.935Z,39.78
2022-12-11T17:34:01.527Z,43.78
2022-12-11T17:36:29.611Z,24.83
2022-12-11T17:38:58.250Z,34.58
2022-12-11T17:41:26.549Z,33.58
2022-12-11T17:43:54.616Z,30.60
2022-12-11T17:46:24.484Z,32.17
2022-12-11T17:48:52.541Z,26.35
2022-12-11T17:51:26.507Z,37.17
2022-12-11T17:53:55.765Z,30.15
2022-12-11T17:56:25.791Z,37.65
2022-12-11T17:58:54.714Z,32.15
2022-12-11T18:01:22.926Z,30.02
2022-12-11T18:03:53.226Z,34.10
2022-12-11T18:06:23.161Z,35.47
2022-12-11T18:08:51.605Z,35.88
2022-12-11T18:11:23.203Z,35.65
2022-12-11T18:13:54.267Z,34.20
2022-12-11T18:16:27.750Z,28.30
2022-12-11T18:18:56.663Z,28.52
2022-12-11T18:21:30.639Z,23.60
2022-12-11T18:24:01.776Z,28.20
2022-12-11T18:26:30.171Z,31.08
2022-12-11T18:29:00.350Z,27.20
2022-12-11T18:31:49.251Z,34.05
2022-12-11T18:34:24.069Z,25.20
2022-12-11T18:36:53.381Z,29.48
2022-12-11T18:39:23.499Z,30.00
2022-12-11T18:42:23.892Z,30.90
2022-12-11T18:44:39.653Z,24.45
2022-12-11T18:47:08.035Z,26.35
2022-12-11T18:49:38.393Z,23.58
2022-12-11T18:52:06.451Z,25.02
2022-12-11T18:54:34.424Z,24.58
2022-12-11T18:57:03.638Z,22.88
2022-12-11T18:59:31.584Z,32.53
2022-12-11T19:01:59.440Z,29.58
2022-12-11T19:04:28.337Z,29.60
2022-12-11T19:07:02.618Z,30.30
2022-12-11T19:09:35.334Z,30.60
2022-12-11T19:12:12.242Z,31.40
2022-12-11T19:14:41.620Z,32.00
2022-12-11T19:17:09.496Z,25.58
2022-12-11T19:19:38.759Z,28.92
2022-12-11T19:22:06.541Z,30.85
2022-12-11T19:24:35.013Z,25.10
2022-12-11T19:27:10.098Z,29.08
2022-12-11T19:29:41.436Z,24.23
2022-12-11T19:32:09.775Z,28.15
2022-12-11T19:34:41.190Z,29.48
2022-12-11T19:37:10.014Z,30.08
2022-12-11T19:39:41.505Z,31.65
2022-12-11T19:42:09.925Z,30.05
2022-12-11T19:44:38.497Z,29.10
2022-12-11T19:47:06.496Z,27.20
2022-12-11T19:49:39.657Z,29.83
2022-12-11T19:52:08.621Z,26.67
2022-12-11T19:54:40.550Z,36.47
2022-12-11T19:57:12.638Z,30.55
2022-12-11T19:59:55.412Z,32.28
2022-12-11T20:02:27.191Z,27.75
2022-12-11T20:05:02.592Z,32.28
2022-12-11T20:07:41.479Z,26.98
2022-12-11T20:10:14.033Z,28.98
2022-12-11T20:12:43.423Z,33.35
2022-12-11T20:15:11.820Z,32.08
2022-12-11T20:17:44.937Z,33.67
2022-12-11T20:20:33.315Z,31.10
2022-12-11T20:23:03.836Z,31.55
2022-12-11T20:25:33.304Z,32.58
2022-12-11T20:28:03.682Z,37.13
2022-12-11T20:30:34.706Z,31.15
2022-12-11T20:33:03.135Z,31.55
2022-12-11T20:35:33.146Z,31.90
2022-12-11T20:38:02.959Z,32.28
2022-12-11T20:40:33.580Z,32.55
2022-12-11T20:43:01.413Z,35.50
2022-12-11T20:45:29.780Z,29.33
2022-12-11T20:47:59.065Z,35.35
2022-12-11T20:50:47.632Z,35.08
2022-12-11T20:53:15.470Z,30.80
2022-12-11T20:55:43.905Z,33.78
2022-12-11T20:58:12.432Z,36.72
2022-12-11T21:00:40.840Z,33.28
2022-12-11T21:03:35.384Z,37.17
2022-12-11T21:06:34.383Z,33.13
2022-12-11T21:09:05.294Z,40.33
2022-12-11T21:11:39.212Z,36.45
2022-12-11T21:17:11.039Z,32.95
2022-12-11T21:19:39.755Z,27.52
2022-12-11T21:22:14.551Z,36.25
2022-12-11T21:24:43.497Z,29.98
2022-12-11T21:27:11.321Z,29.77
2022-12-11T21:29:42.973Z,29.70
2022-12-11T21:32:15.124Z,28.70
2022-12-11T21:34:48.574Z,26.52
2022-12-11T21:37:18.741Z,31.50
2022-12-11T21:39:51.388Z,31.15
2022-12-11T21:42:26.333Z,31.13
2022-12-11T21:47:45.260Z,31.58
2022-12-11T21:50:13.685Z,23.88
2022-12-11T21:52:42.738Z,28.52
2022-12-11T21:55:13.190Z,33.17
2022-12-11T21:57:47.659Z,30.58
2022-12-11T22:00:16.711Z,33.90
2022-12-11T22:02:53.211Z,31.77
2022-12-11T22:05:22.918Z,23.98
2022-12-11T22:07:53.271Z,28.05
2022-12-11T22:10:22.533Z,31.23
2022-12-11T22:13:01.574Z,29.05
2022-12-11T22:15:33.072Z,24.55
2022-12-11T22:18:02.541Z,26.55
2022-12-11T22:20:34.234Z,32.15
2022-12-11T22:23:26.802Z,25.67
2022-12-11T22:26:24.792Z,24.98
2022-12-11T22:29:20.871Z,24.13
2022-12-11T22:32:15.638Z,27.17
2022-12-11T22:34:47.226Z,26.48
2022-12-11T22:37:35.804Z,26.95
2022-12-11T22:40:06.010Z,29.70
2022-12-11T22:42:36.168Z,26.15
2022-12-11T22:45:12.659Z,22.35
2022-12-11T22:47:45.106Z,25.00
2022-12-11T22:50:20.623Z,25.50
2022-12-11T22:52:54.068Z,23.60
2022-12-11T22:55:30.313Z,19.45
2022-12-11T22:57:58.226Z,23.75
2022-12-11T23:00:26.227Z,26.50
2022-12-11T23:02:54.080Z,21.52
2022-12-11T23:05:22.955Z,24.02
2022-12-11T23:07:51.065Z,22.05
2022-12-11T23:10:18.985Z,20.65
2022-12-11T23:12:48.786Z,20.00
2022-12-11T23:15:16.628Z,25.27
2022-12-11T23:17:44.550Z,22.92
2022-12-11T23:20:12.550Z,20.35
2022-12-11T23:22:40.611Z,22.80
2022-12-11T23:25:09.026Z,24.98
2022-12-11T23:27:37.663Z,24.95
2022-12-11T23:30:08.944Z,21.20
2022-12-11T23:32:36.819Z,24.00
2022-12-11T23:35:05.551Z,20.48
2022-12-11T23:37:33.661Z,19.10
2022-12-11T23:40:01.481Z,23.90
2022-12-11T23:42:29.495Z,22.23
2022-12-11T23:44:57.854Z,19.88
2022-12-11T23:47:25.905Z,27.05
2022-12-11T23:49:54.349Z,20.75
2022-12-11T23:52:23.205Z,18.73
2022-12-11T23:54:55.402Z,20.80
2022-12-11T23:57:24.013Z,20.13
2022-12-11T23:59:51.999Z,25.25
